createdAt,value
2018-04-14T00:02:19.419Z,93.50
2018-04-14T00:04:46.568Z,93.50
2018-04-14T00:07:13.691Z,93.70
2018-04-14T00:09:41.580Z,93.10
2018-04-14T00:12:07.988Z,93.10
2018-04-14T00:14:34.391Z,92.60
2018-04-14T00:17:00.781Z,92.30
2018-04-14T00:19:27.190Z,92.30
2018-04-14T00:21:53.684Z,92.40
2018-04-14T00:24:20.234Z,92.10
2018-04-14T00:26:47.461Z,92.90
2018-04-14T00:29:13.911Z,93.10
2018-04-14T00:31:40.343Z,92.60
2018-04-14T00:34:06.758Z,92.10
2018-04-14T00:36:33.160Z,92.00
2018-04-14T00:38:59.553Z,92.00
2018-04-14T00:41:25.943Z,91.90
2018-04-14T00:43:52.339Z,92.00
2018-04-14T00:46:18.730Z,92.40
2018-04-14T00:48:45.142Z,92.20
2018-04-14T00:51:11.606Z,92.20
2018-04-14T00:53:46.268Z,92.70
2018-04-14T00:56:14.186Z,92.10
2018-04-14T00:58:40.609Z,92.10
2018-04-14T01:01:07.043Z,92.00
2018-04-14T01:03:33.435Z,91.80
2018-04-14T01:06:01.351Z,92.00
2018-04-14T01:08:27.761Z,91.90
2018-04-14T01:10:54.895Z,92.00
2018-04-14T01:13:21.270Z,91.90
2018-04-14T01:15:47.673Z,92.50
2018-04-14T01:18:14.817Z,92.80
2018-04-14T01:20:41.954Z,93.10
2018-04-14T01:23:08.355Z,93.10
2018-04-14T01:25:35.119Z,93.30
2018-04-14T01:28:02.258Z,92.80
2018-04-14T01:30:28.658Z,92.70
2018-04-14T01:32:55.162Z,92.60
2018-04-14T01:35:21.615Z,92.30
2018-04-14T01:37:48.151Z,92.80
2018-04-14T01:40:14.562Z,92.50
2018-04-14T01:42:40.978Z,92.60
2018-04-14T01:45:08.850Z,92.00
2018-04-14T01:47:35.993Z,92.00
2018-04-14T01:50:03.882Z,92.10
2018-04-14T01:52:30.270Z,92.10
2018-04-14T01:54:56.691Z,91.80
2018-04-14T01:57:23.083Z,92.50
2018-04-14T01:59:49.467Z,92.20
2018-04-14T02:02:15.865Z,91.80
2018-04-14T02:04:42.243Z,91.50
2018-04-14T02:07:08.635Z,91.20
2018-04-14T02:09:35.042Z,91.50
2018-04-14T02:12:01.455Z,91.20
2018-04-14T02:14:27.924Z,91.00
2018-04-14T02:16:54.346Z,91.30
2018-04-14T02:19:20.747Z,91.20
2018-04-14T02:21:47.115Z,91.20
2018-04-14T02:24:13.491Z,91.60
2018-04-14T02:26:39.877Z,92.20
2018-04-14T02:29:06.445Z,92.40
2018-04-14T02:31:32.818Z,92.50
2018-04-14T02:33:59.297Z,92.70
2018-04-14T02:36:25.723Z,93.00
2018-04-14T02:38:52.115Z,92.70
2018-04-14T02:41:18.504Z,92.20
2018-04-14T02:43:44.899Z,92.50
2018-04-14T02:46:12.057Z,92.70
2018-04-14T02:48:38.492Z,92.70
2018-04-14T02:51:04.894Z,92.70
2018-04-14T02:53:32.802Z,92.70
2018-04-14T02:55:59.906Z,92.50
2018-04-14T02:58:26.296Z,92.50
2018-04-14T03:00:52.708Z,92.80
2018-04-14T03:03:19.095Z,92.60
2018-04-14T03:05:45.482Z,92.30
2018-04-14T03:08:11.934Z,92.40
2018-04-14T03:10:38.341Z,92.10
2018-04-14T03:13:04.721Z,92.00
2018-04-14T03:15:31.103Z,92.20
2018-04-14T03:17:57.500Z,92.20
2018-04-14T03:20:23.885Z,92.00
2018-04-14T03:22:50.263Z,92.00
2018-04-14T03:25:16.884Z,92.10
2018-04-14T03:27:43.275Z,92.50
2018-04-14T03:30:09.750Z,92.40
2018-04-14T03:32:36.142Z,93.30
2018-04-14T03:35:02.624Z,93.00
2018-04-14T03:37:30.515Z,92.50
2018-04-14T03:39:57.653Z,92.40
2018-04-14T03:42:24.783Z,92.60
2018-04-14T03:44:51.205Z,92.50
2018-04-14T03:47:17.612Z,92.20
2018-04-14T03:49:44.037Z,92.00
2018-04-14T03:52:10.432Z,91.90
2018-04-14T03:54:37.612Z,91.40
2018-04-14T03:57:04.011Z,91.40
2018-04-14T03:59:30.405Z,91.10
2018-04-14T04:01:56.788Z,91.10
2018-04-14T04:04:23.961Z,91.30
2018-04-14T04:06:50.392Z,91.30
2018-04-14T04:09:16.800Z,91.50
2018-04-14T04:11:44.026Z,92.70
2018-04-14T04:14:11.220Z,93.10
2018-04-14T04:16:37.668Z,93.10
2018-04-14T04:19:16.309Z,93.00
2018-04-14T04:21:54.869Z,93.10
2018-04-14T04:24:34.443Z,92.10
2018-04-14T04:27:01.588Z,91.70
2018-04-14T04:29:28.006Z,91.70
2018-04-14T04:31:55.154Z,91.00
2018-04-14T04:34:21.559Z,91.00
2018-04-14T04:36:48.052Z,90.90
2018-04-14T04:39:14.502Z,91.20
2018-04-14T04:41:40.956Z,91.30
2018-04-14T04:44:08.105Z,91.60
2018-04-14T04:46:35.260Z,91.80
2018-04-14T04:49:01.652Z,91.80
2018-04-14T04:51:28.048Z,91.60
2018-04-14T04:53:55.213Z,91.20
2018-04-14T04:56:21.615Z,91.20
2018-04-14T04:58:48.042Z,91.30
2018-04-14T05:01:16.042Z,91.40
2018-04-14T05:03:43.184Z,91.70
2018-04-14T05:06:09.598Z,91.70
2018-04-14T05:08:37.474Z,91.70
2018-04-14T05:11:04.623Z,91.60
2018-04-14T05:13:31.820Z,92.20
2018-04-14T05:15:58.228Z,91.90
2018-04-14T05:18:24.647Z,92.30
2018-04-14T05:20:51.787Z,92.60
2018-04-14T05:23:18.931Z,92.90
2018-04-14T05:25:46.803Z,93.10
2018-04-14T05:28:13.211Z,93.10
2018-04-14T05:30:40.351Z,93.60
2018-04-14T05:33:06.756Z,93.60
2018-04-14T05:35:33.319Z,93.20
2018-04-14T05:37:59.710Z,93.80
2018-04-14T05:40:26.159Z,93.60
2018-04-14T05:42:52.575Z,93.70
2018-04-14T05:45:18.984Z,93.50
2018-04-14T05:47:46.108Z,93.00
2018-04-14T05:50:12.530Z,92.80
2018-04-14T05:52:38.925Z,92.80
2018-04-14T05:55:05.330Z,92.50
2018-04-14T05:57:32.536Z,92.90
2018-04-14T05:59:58.947Z,92.90
2018-04-14T06:02:25.473Z,91.60
2018-04-14T06:04:51.909Z,90.50
2018-04-14T06:07:18.351Z,89.80
2018-04-14T06:09:44.771Z,88.60
2018-04-14T06:12:11.186Z,87.90
2018-04-14T06:14:38.301Z,84.40
2018-04-14T06:17:06.193Z,82.20
2018-04-14T06:19:33.342Z,81.20
2018-04-14T06:22:00.483Z,83.30
2018-04-14T06:24:27.100Z,82.70
2018-04-14T06:26:53.522Z,83.50
2018-04-14T06:29:19.944Z,83.10
2018-04-14T06:31:46.363Z,83.60
2018-04-14T06:34:12.798Z,80.80
2018-04-14T06:36:39.224Z,80.90
2018-04-14T06:39:05.675Z,79.70
2018-04-14T06:41:32.202Z,81.40
2018-04-14T06:43:58.628Z,80.80
2018-04-14T06:46:25.072Z,80.50
2018-04-14T06:48:51.462Z,80.10
2018-04-14T06:51:17.852Z,79.90
2018-04-14T06:53:44.305Z,79.20
2018-04-14T06:56:10.694Z,78.50
2018-04-14T06:58:37.165Z,76.80
2018-04-14T07:01:04.355Z,78.20
2018-04-14T07:03:31.489Z,77.80
2018-04-14T07:05:58.654Z,76.20
2018-04-14T07:08:25.834Z,74.30
2018-04-14T07:10:52.231Z,74.30
2018-04-14T07:13:19.386Z,75.50
2018-04-14T07:15:46.526Z,75.10
2018-04-14T07:18:12.927Z,75.00
2018-04-14T07:20:39.376Z,76.40
2018-04-14T07:23:05.773Z,77.20
2018-04-14T07:25:32.217Z,74.40
2018-04-14T07:27:58.625Z,74.10
2018-04-14T07:30:25.037Z,74.60
2018-04-14T07:32:52.171Z,73.20
2018-04-14T07:35:19.310Z,71.30
2018-04-14T07:37:45.721Z,71.30
2018-04-14T07:40:12.153Z,72.40
2018-04-14T07:42:39.409Z,69.10
2018-04-14T07:45:05.830Z,70.20
2018-04-14T07:47:32.239Z,69.40
2018-04-14T07:49:58.832Z,67.30
2018-04-14T07:52:25.240Z,67.50
2018-04-14T07:54:51.639Z,68.10
2018-04-14T07:57:18.040Z,69.50
2018-04-14T07:59:44.435Z,67.00
2018-04-14T08:02:10.971Z,68.70
2018-04-14T08:04:37.392Z,66.50
2018-04-14T08:07:03.792Z,64.90
2018-04-14T08:09:30.237Z,64.70
2018-04-14T08:11:56.645Z,64.90
2018-04-14T08:14:23.027Z,64.80
2018-04-14T08:16:49.421Z,65.40
2018-04-14T08:19:15.835Z,63.70
2018-04-14T08:21:42.972Z,64.40
2018-04-14T08:24:09.406Z,64.40
2018-04-14T08:26:36.609Z,61.50
2018-04-14T08:29:03.164Z,61.50
2018-04-14T08:31:29.580Z,61.60
2018-04-14T08:33:55.963Z,63.20
2018-04-14T08:36:22.386Z,63.40
2018-04-14T08:38:48.843Z,64.50
2018-04-14T08:41:16.032Z,60.30
2018-04-14T08:43:42.469Z,60.30
2018-04-14T08:46:08.864Z,60.20
2018-04-14T08:48:36.002Z,60.50
2018-04-14T08:51:03.167Z,62.20
2018-04-14T08:53:30.298Z,58.20
2018-04-14T08:55:56.794Z,58.20
2018-04-14T08:58:23.219Z,59.10
2018-04-14T09:00:49.604Z,59.40
2018-04-14T09:03:16.760Z,60.50
2018-04-14T09:05:43.966Z,62.20
2018-04-14T09:08:10.366Z,62.10
2018-04-14T09:10:36.812Z,59.50
2018-04-14T09:13:03.209Z,61.20
2018-04-14T09:15:30.357Z,61.80
2018-04-14T09:17:57.520Z,62.20
2018-04-14T09:20:24.714Z,62.60
2018-04-14T09:22:51.126Z,62.50
2018-04-14T09:25:17.517Z,61.40
2018-04-14T09:27:44.867Z,59.60
2018-04-14T09:30:11.300Z,59.60
2018-04-14T09:32:37.706Z,58.50
2018-04-14T09:35:04.135Z,57.90
2018-04-14T09:37:30.550Z,59.50
2018-04-14T09:39:56.933Z,59.60
2018-04-14T09:42:23.346Z,59.30
2018-04-14T09:44:49.751Z,58.10
2018-04-14T09:47:16.131Z,59.60
2018-04-14T09:49:42.899Z,57.70
2018-04-14T09:52:09.294Z,59.90
2018-04-14T09:54:36.434Z,57.80
2018-04-14T09:57:02.821Z,58.20
2018-04-14T09:59:29.296Z,58.70
2018-04-14T10:01:55.757Z,56.90
2018-04-14T10:04:22.186Z,56.80
2018-04-14T10:06:48.594Z,55.20
2018-04-14T10:09:14.996Z,56.30
2018-04-14T10:11:41.536Z,56.00
2018-04-14T10:14:07.941Z,56.90
2018-04-14T10:16:35.068Z,53.30
2018-04-14T10:19:02.205Z,53.40
2018-04-14T10:21:28.591Z,52.80
2018-04-14T10:23:55.939Z,55.00
2018-04-14T10:26:22.359Z,55.00
2018-04-14T10:28:49.492Z,53.50
2018-04-14T10:31:15.895Z,53.50
2018-04-14T10:33:42.294Z,55.20
2018-04-14T10:36:08.705Z,53.70
2018-04-14T10:38:35.843Z,52.80
2018-04-14T10:41:03.021Z,54.00
2018-04-14T10:43:29.432Z,53.90
2018-04-14T10:45:56.586Z,50.10
2018-04-14T10:48:23.724Z,50.30
2018-04-14T10:50:51.590Z,50.20
2018-04-14T10:53:18.780Z,53.00
2018-04-14T10:55:45.209Z,52.90
2018-04-14T10:58:12.322Z,50.20
2018-04-14T11:00:39.529Z,50.40
2018-04-14T11:03:05.914Z,50.40
2018-04-14T11:05:33.059Z,52.70
2018-04-14T11:08:00.202Z,51.30
2018-04-14T11:10:28.071Z,48.30
2018-04-14T11:12:55.316Z,47.70
2018-04-14T11:15:23.246Z,46.80
2018-04-14T11:17:49.635Z,46.80
2018-04-14T11:20:16.794Z,47.10
2018-04-14T11:22:43.925Z,45.10
2018-04-14T11:25:10.341Z,45.10
2018-04-14T11:27:36.753Z,46.50
2018-04-14T11:30:03.193Z,47.60
2018-04-14T11:32:29.670Z,46.70
2018-04-14T11:34:56.831Z,46.80
2018-04-14T11:37:23.228Z,46.80
2018-04-14T11:39:50.365Z,45.00
2018-04-14T11:42:16.874Z,45.00
2018-04-14T11:44:43.284Z,46.10
2018-04-14T11:47:09.687Z,45.00
2018-04-14T11:49:36.079Z,44.90
2018-04-14T11:52:02.532Z,48.00
2018-04-14T11:54:28.951Z,46.70
2018-04-14T11:56:55.368Z,47.00
2018-04-14T11:59:21.769Z,48.50
2018-04-14T12:01:49.028Z,46.10
2018-04-14T12:04:16.164Z,45.50
2018-04-14T12:06:43.377Z,43.50
2018-04-14T12:09:09.812Z,42.90
2018-04-14T12:11:36.207Z,44.30
2018-04-14T12:14:02.622Z,45.90
2018-04-14T12:16:29.776Z,44.40
2018-04-14T12:21:56.556Z,42.30
2018-04-14T12:24:22.964Z,43.60
2018-04-14T12:26:50.106Z,44.40
2018-04-14T12:29:17.253Z,44.20
2018-04-14T12:31:43.652Z,44.20
2018-04-14T12:34:16.064Z,42.10
2018-04-14T12:36:43.217Z,45.00
2018-04-14T12:39:10.333Z,43.40
2018-04-14T12:41:36.731Z,43.00
2018-04-14T12:44:03.130Z,43.70
2018-04-14T12:46:30.262Z,44.60
2018-04-14T12:48:56.673Z,44.40
2018-04-14T12:51:23.091Z,45.10
2018-04-14T12:53:49.486Z,42.40
2018-04-14T12:56:16.644Z,43.10
2018-04-14T12:58:43.053Z,43.00
2018-04-14T13:01:10.199Z,41.80
2018-04-14T13:03:38.228Z,43.00
2018-04-14T13:06:04.648Z,42.90
2018-04-14T13:08:31.143Z,43.00
2018-04-14T13:10:58.331Z,41.90
2018-04-14T13:13:24.762Z,41.80
2018-04-14T13:15:51.192Z,44.10
2018-04-14T13:18:17.592Z,44.40
2018-04-14T13:20:44.753Z,42.50
2018-04-14T13:23:11.895Z,43.80
2018-04-14T13:25:39.048Z,43.00
2018-04-14T13:28:06.186Z,43.70
2018-04-14T13:30:32.595Z,43.60
2018-04-14T13:32:59.038Z,42.10
2018-04-14T13:35:25.431Z,42.00
2018-04-14T13:37:51.832Z,43.30
2018-04-14T13:40:18.970Z,43.40
2018-04-14T13:42:45.369Z,43.40
2018-04-14T13:45:11.773Z,44.50
2018-04-14T13:47:38.162Z,43.30
2018-04-14T13:50:05.282Z,44.40
2018-04-14T13:52:31.674Z,44.40
2018-04-14T13:54:58.825Z,44.00
2018-04-14T13:57:25.237Z,44.00
2018-04-14T13:59:51.639Z,44.90
2018-04-14T14:02:18.042Z,45.30
2018-04-14T14:04:44.452Z,44.10
2018-04-14T14:07:11.583Z,44.10
2018-04-14T14:09:38.887Z,45.00
2018-04-14T14:12:05.304Z,44.80
2018-04-14T14:14:31.763Z,44.90
2018-04-14T14:16:58.228Z,42.60
2018-04-14T14:19:25.388Z,42.90
2018-04-14T14:21:52.547Z,42.80
2018-04-14T14:24:19.723Z,44.80
2018-04-14T14:26:46.112Z,44.90
2018-04-14T14:29:12.496Z,45.60
2018-04-14T14:31:38.887Z,46.70
2018-04-14T14:34:06.039Z,45.80
2018-04-14T14:36:32.404Z,45.70
2018-04-14T14:38:58.812Z,45.30
2018-04-14T14:41:25.935Z,46.00
2018-04-14T14:43:52.336Z,46.00
2018-04-14T14:46:18.761Z,46.50
2018-04-14T14:48:45.178Z,46.10
2018-04-14T14:51:11.600Z,45.00
2018-04-14T14:53:38.752Z,42.20
2018-04-14T14:56:05.151Z,42.30
2018-04-14T14:58:31.535Z,43.50
2018-04-14T15:00:58.000Z,42.40
2018-04-14T15:03:24.388Z,43.40
2018-04-14T15:05:50.787Z,44.00
2018-04-14T15:08:17.223Z,44.00
2018-04-14T15:10:45.099Z,45.30
2018-04-14T15:13:11.559Z,45.30
2018-04-14T15:15:37.967Z,43.70
2018-04-14T15:18:05.132Z,45.30
2018-04-14T15:20:32.340Z,44.80
2018-04-14T15:22:58.740Z,44.60
2018-04-14T15:25:25.137Z,44.50
2018-04-14T15:27:52.268Z,44.50
2018-04-14T15:30:18.643Z,44.50
2018-04-14T15:32:45.772Z,44.50
2018-04-14T15:35:12.922Z,43.80
2018-04-14T15:37:40.052Z,43.60
2018-04-14T15:40:06.465Z,43.10
2018-04-14T15:42:32.919Z,43.20
2018-04-14T15:44:59.309Z,44.00
2018-04-14T15:47:25.707Z,43.70
2018-04-14T15:49:52.936Z,43.60
2018-04-14T15:52:19.324Z,43.60
2018-04-14T15:54:45.722Z,43.10
2018-04-14T15:57:12.860Z,42.80
2018-04-14T15:59:39.259Z,42.80
2018-04-14T16:02:05.659Z,43.20
2018-04-14T16:04:32.122Z,43.00
2018-04-14T16:06:59.229Z,42.40
2018-04-14T16:09:26.375Z,42.90
2018-04-14T16:11:53.506Z,42.50
2018-04-14T16:14:19.911Z,42.60
2018-04-14T16:16:46.464Z,43.70
2018-04-14T16:19:12.936Z,43.20
2018-04-14T16:21:40.133Z,43.30
2018-04-14T16:24:06.543Z,43.30
2018-04-14T16:26:32.967Z,43.30
2018-04-14T16:28:59.403Z,43.00
2018-04-14T16:31:25.803Z,43.70
2018-04-14T16:33:52.948Z,43.60
2018-04-14T16:36:19.388Z,43.60
2018-04-14T16:41:26.830Z,43.10
2018-04-14T16:43:53.281Z,43.70
2018-04-14T16:46:19.677Z,43.60
2018-04-14T16:48:46.092Z,43.70
2018-04-14T16:51:12.505Z,44.10
2018-04-14T16:53:38.920Z,44.00
2018-04-14T16:56:05.402Z,44.50
2018-04-14T16:58:32.546Z,44.70
2018-04-14T17:00:59.704Z,44.70
2018-04-14T17:03:26.867Z,44.70
2018-04-14T17:05:53.999Z,44.80
2018-04-14T17:08:20.424Z,44.70
2018-04-14T17:10:47.593Z,45.10
2018-04-14T17:13:14.773Z,44.90
2018-04-14T17:15:41.187Z,44.80
2018-04-14T17:18:07.582Z,45.10
2018-04-14T17:20:33.998Z,44.80
2018-04-14T17:23:00.472Z,44.60
2018-04-14T17:25:26.920Z,44.90
2018-04-14T17:27:53.323Z,44.70
2018-04-14T17:30:19.916Z,44.90
2018-04-14T17:32:46.384Z,46.10
2018-04-14T17:35:12.790Z,45.40
2018-04-14T17:37:39.194Z,45.90
2018-04-14T17:40:05.638Z,45.30
2018-04-14T17:42:32.076Z,45.40
2018-04-14T17:44:58.477Z,46.20
2018-04-14T17:47:25.621Z,45.80
2018-04-14T17:49:52.778Z,46.10
2018-04-14T17:52:19.264Z,46.10
2018-04-14T17:54:45.663Z,47.70
2018-04-14T17:57:12.078Z,49.40
2018-04-14T17:59:38.528Z,49.70
2018-04-14T18:02:05.002Z,51.40
2018-04-14T18:04:31.389Z,49.80
2018-04-14T18:06:58.578Z,50.80
2018-04-14T18:09:25.213Z,51.70
2018-04-14T18:11:51.612Z,53.70
2018-04-14T18:14:18.076Z,53.90
2018-04-14T18:16:44.519Z,53.90
2018-04-14T18:19:10.914Z,53.70
2018-04-14T18:21:37.661Z,53.80
2018-04-14T18:24:04.117Z,53.50
2018-04-14T18:26:30.634Z,53.50
2018-04-14T18:28:57.099Z,54.30
2018-04-14T18:31:24.333Z,55.90
2018-04-14T18:33:52.471Z,57.10
2018-04-14T18:36:18.965Z,58.80
2018-04-14T18:38:45.388Z,59.60
2018-04-14T18:41:11.821Z,60.30
2018-04-14T18:43:38.242Z,59.90
2018-04-14T18:46:04.652Z,60.30
2018-04-14T18:48:31.042Z,59.50
2018-04-14T18:50:57.452Z,59.80
2018-04-14T18:53:23.865Z,59.50
2018-04-14T18:55:50.251Z,59.00
2018-04-14T18:58:17.409Z,61.10
2018-04-14T19:00:44.542Z,64.80
2018-04-14T19:03:10.932Z,64.70
2018-04-14T19:05:37.372Z,65.70
2018-04-14T19:08:03.783Z,65.90
2018-04-14T19:10:30.179Z,65.60
2018-04-14T19:12:57.363Z,66.10
2018-04-14T19:15:23.762Z,66.10
2018-04-14T19:17:50.213Z,65.90
2018-04-14T19:20:16.571Z,66.10
2018-04-14T19:22:42.968Z,65.50
2018-04-14T19:25:10.133Z,67.90
2018-04-14T19:27:36.557Z,67.90
2018-04-14T19:30:03.008Z,68.70
2018-04-14T19:32:29.493Z,69.00
2018-04-14T19:34:56.642Z,69.60
2018-04-14T19:37:23.036Z,69.60
2018-04-14T19:39:49.451Z,70.50
2018-04-14T19:42:16.623Z,71.80
2018-04-14T19:44:43.027Z,71.70
2018-04-14T19:47:10.167Z,72.80
2018-04-14T19:49:37.302Z,72.70
2018-04-14T19:52:04.508Z,72.50
2018-04-14T19:54:30.907Z,72.10
2018-04-14T19:56:57.356Z,71.90
2018-04-14T19:59:23.746Z,71.80
2018-04-14T20:01:50.547Z,71.50
2018-04-14T20:04:17.124Z,70.40
2018-04-14T20:06:43.571Z,69.80
2018-04-14T20:09:11.122Z,71.50
2018-04-14T20:11:37.525Z,71.40
2018-04-14T20:14:03.945Z,71.80
2018-04-14T20:16:30.339Z,72.40
2018-04-14T20:18:57.478Z,73.30
2018-04-14T20:21:24.668Z,73.40
2018-04-14T20:23:51.066Z,73.30
2018-04-14T20:26:18.191Z,73.50
2018-04-14T20:28:44.599Z,74.10
2018-04-14T20:31:11.043Z,73.00
2018-04-14T20:33:37.502Z,73.90
2018-04-14T20:36:04.073Z,73.10
2018-04-14T20:38:30.463Z,71.80
2018-04-14T20:40:56.914Z,72.00
2018-04-14T20:43:24.055Z,72.30
2018-04-14T20:45:51.228Z,72.30
2018-04-14T20:48:17.624Z,72.30
2018-04-14T20:50:44.036Z,71.00
2018-04-14T20:53:10.417Z,70.70
2018-04-14T20:55:37.585Z,69.20
2018-04-14T20:58:03.988Z,69.30
2018-04-14T21:00:30.382Z,68.80
2018-04-14T21:02:56.754Z,68.00
2018-04-14T21:05:23.158Z,68.30
2018-04-14T21:07:50.330Z,69.20
2018-04-14T21:10:18.218Z,69.70
2018-04-14T21:12:44.668Z,69.70
2018-04-14T21:15:11.075Z,70.00
2018-04-14T21:17:38.218Z,71.90
2018-04-14T21:20:04.618Z,71.70
2018-04-14T21:22:31.049Z,72.50
2018-04-14T21:24:57.471Z,73.70
2018-04-14T21:27:23.876Z,74.50
2018-04-14T21:29:50.279Z,76.60
2018-04-14T21:32:16.671Z,77.60
2018-04-14T21:34:43.100Z,78.10
2018-04-14T21:37:09.511Z,77.50
2018-04-14T21:39:35.957Z,76.80
2018-04-14T21:42:02.367Z,75.80
2018-04-14T21:44:29.521Z,74.20
2018-04-14T21:46:55.913Z,74.10
2018-04-14T21:49:22.315Z,74.30
2018-04-14T21:51:48.716Z,74.50
2018-04-14T21:54:15.129Z,74.60
2018-04-14T21:56:41.539Z,74.90
2018-04-14T21:59:07.924Z,75.00
2018-04-14T22:01:34.299Z,75.90
2018-04-14T22:04:00.699Z,76.00
2018-04-14T22:06:27.153Z,76.40
2018-04-14T22:08:53.550Z,77.10
2018-04-14T22:11:19.986Z,78.40
2018-04-14T22:13:46.411Z,79.40
2018-04-14T22:16:12.815Z,80.10
2018-04-14T22:18:39.245Z,80.90
2018-04-14T22:21:05.666Z,82.60
2018-04-14T22:23:32.081Z,83.10
2018-04-14T22:25:58.506Z,81.60
2018-04-14T22:28:24.918Z,81.80
2018-04-14T22:30:51.314Z,81.80
2018-04-14T22:33:18.458Z,81.90
2018-04-14T22:35:44.858Z,81.80
2018-04-14T22:38:11.260Z,81.70
2018-04-14T22:40:37.658Z,81.40
2018-04-14T22:43:04.100Z,80.60
2018-04-14T22:45:31.233Z,80.10
2018-04-14T22:47:57.632Z,80.10
2018-04-14T22:50:24.035Z,79.60
2018-04-14T22:52:50.417Z,79.10
2018-04-14T22:55:16.802Z,79.10
2018-04-14T22:57:43.216Z,78.70
2018-04-14T23:00:09.668Z,78.40
2018-04-14T23:02:36.046Z,79.00
2018-04-14T23:05:02.502Z,79.20
2018-04-14T23:07:29.628Z,82.70
2018-04-14T23:09:56.004Z,82.70
2018-04-14T23:12:23.134Z,82.30
2018-04-14T23:14:50.328Z,80.60
2018-04-14T23:17:16.748Z,81.10
2018-04-14T23:19:43.141Z,80.40
2018-04-14T23:22:13.888Z,79.30
2018-04-14T23:24:41.036Z,79.80
2018-04-14T23:27:08.219Z,81.10
2018-04-14T23:29:34.637Z,81.10
2018-04-14T23:32:01.028Z,82.00
2018-04-14T23:34:27.432Z,82.60
2018-04-14T23:36:53.819Z,82.30
2018-04-14T23:39:20.962Z,81.40
2018-04-14T23:41:48.262Z,80.80
2018-04-14T23:44:14.675Z,80.80
2018-04-14T23:46:41.076Z,81.00
2018-04-14T23:49:07.464Z,82.00
2018-04-14T23:51:33.874Z,82.40
2018-04-14T23:54:00.271Z,82.40
2018-04-14T23:56:26.748Z,82.80
2018-04-14T23:58:53.128Z,83.70
